Time;durP1;ratioP1;P1;durP2;ratioP2;P2;SDS_P1;SDS_P2;PMS_P1;PMS_P2;Temp;Humidity;BMP_temperature;BMP_pressure;BME280_temperature;BME280_humidity;BME280_pressure;Samples;Min_cycle;Max_cycle;Signal;HPM_P1;HPM_P2
2021/09/30 00:01:39;;;;;;;1.80;0.90;;;9.50;99.90;;;;;;4094817;28;20230;-86
2021/09/30 00:03:41;;;;;;;1.53;1.00;;;9.50;99.90;;;;;;4100937;28;20964;-86
2021/09/30 00:05:43;;;;;;;2.13;1.10;;;9.50;99.90;;;;;;4098915;28;20492;-86
2021/09/30 00:07:46;;;;;;;2.40;1.10;;;9.50;99.90;;;;;;4100337;28;20489;-86
2021/09/30 00:09:48;;;;;;;1.27;0.97;;;9.50;99.90;;;;;;4108089;28;20461;-86
2021/09/30 00:11:54;;;;;;;1.83;1.17;;;9.40;99.90;;;;;;4100891;28;20458;-86
2021/09/30 00:14:04;;;;;;;1.90;1.13;;;9.40;99.90;;;;;;4100496;29;20465;-86
2021/09/30 00:16:26;;;;;;;1.70;1.10;;;9.40;99.90;;;;;;4100728;29;20457;-86
2021/09/30 00:32:27;;;;;;;3.20;1.20;;;9.40;99.90;;;;;;4100936;28;20465;-86
2021/09/30 00:32:57;;;;;;;2.57;1.10;;;9.30;99.90;;;;;;4119881;28;20506;-77
2021/09/30 00:35:03;;;;;;;1.53;1.10;;;9.20;99.90;;;;;;4130020;28;20551;-77
2021/09/30 00:41:50;;;;;;;2.97;1.20;;;9.20;99.90;;;;;;4124647;28;21004;-76
2021/09/30 00:46:19;;;;;;;1.20;1.00;;;9.20;99.90;;;;;;4131164;28;20498;-79
2021/09/30 00:48:44;;;;;;;1.60;1.10;;;9.10;99.90;;;;;;4115023;28;21037;-75
2021/09/30 00:50:52;;;;;;;1.60;1.10;;;9.10;99.90;;;;;;4129175;28;20463;-78
2021/09/30 00:53:04;;;;;;;3.10;1.10;;;9.10;99.90;;;;;;4132042;28;20485;-78
2021/09/30 01:46:22;;;;;;;1.03;0.93;;;8.90;99.90;;;;;;4109188;28;20475;-78
2021/09/30 02:19:15;;;;;;;3.87;1.60;;;9.00;99.90;;;;;;4125739;28;20451;-74
2021/09/30 02:26:26;;;;;;;1.37;0.93;;;9.00;99.90;;;;;;4120165;28;20502;-79
2021/09/30 02:28:46;;;;;;;2.43;1.03;;;9.00;99.90;;;;;;4123587;28;20583;-78
2021/09/30 02:59:16;;;;;;;2.80;1.30;;;8.90;99.90;;;;;;4126464;28;20474;-80
2021/09/30 03:01:20;;;;;;;2.33;1.20;;;8.80;99.90;;;;;;4129839;28;20501;-77
2021/09/30 03:03:24;;;;;;;5.13;1.40;;;8.70;99.90;;;;;;4141341;28;20548;-78
2021/09/30 03:05:28;;;;;;;1.63;1.00;;;8.80;99.90;;;;;;4137394;28;20607;-78
2021/09/30 03:07:32;;;;;;;3.30;1.20;;;8.80;99.90;;;;;;4126407;28;20474;-78
2021/09/30 03:09:38;;;;;;;4.43;1.13;;;8.80;99.90;;;;;;4120585;28;20464;-77
2021/09/30 03:11:46;;;;;;;2.83;1.00;;;8.80;99.90;;;;;;4133255;28;21006;-80
2021/09/30 03:13:50;;;;;;;3.07;1.87;;;8.80;99.90;;;;;;4117627;28;20890;-80
2021/09/30 03:15:56;;;;;;;3.47;1.30;;;8.80;99.90;;;;;;4117889;28;20583;-80
2021/09/30 03:18:13;;;;;;;4.03;1.20;;;8.70;99.90;;;;;;4123952;28;20486;-80
2021/09/30 03:20:39;;;;;;;4.83;1.27;;;8.70;99.90;;;;;;4130938;28;20467;-80
2021/09/30 03:22:41;;;;;;;2.63;1.03;;;8.70;99.90;;;;;;4137070;28;20501;-80
2021/09/30 03:24:46;;;;;;;1.60;1.10;;;8.80;99.90;;;;;;4127816;28;20519;-80
2021/09/30 03:26:48;;;;;;;3.50;1.20;;;8.70;99.90;;;;;;4132776;28;20540;-80
2021/09/30 03:28:51;;;;;;;2.73;1.10;;;8.70;99.90;;;;;;4133945;28;20498;-80
2021/09/30 03:30:55;;;;;;;3.63;1.00;;;8.70;99.90;;;;;;4124803;28;20845;-80
2021/09/30 03:32:58;;;;;;;3.60;1.50;;;8.70;99.90;;;;;;4118048;28;20476;-78
2021/09/30 03:35:00;;;;;;;1.87;0.90;;;8.70;99.90;;;;;;4117044;28;21033;-80
2021/09/30 03:37:03;;;;;;;1.90;1.07;;;8.70;99.90;;;;;;4123971;28;20977;-80
2021/09/30 03:39:08;;;;;;;3.87;1.27;;;8.70;99.90;;;;;;4134211;28;20463;-77
2021/09/30 03:41:10;;;;;;;1.73;1.10;;;8.70;99.90;;;;;;4120196;28;20503;-80
2021/09/30 03:43:12;;;;;;;1.80;1.03;;;8.70;99.90;;;;;;4119719;28;20622;-80
2021/09/30 03:45:14;;;;;;;3.87;1.37;;;8.70;99.90;;;;;;4118265;28;20511;-77
2021/09/30 03:47:18;;;;;;;1.60;1.10;;;8.70;99.90;;;;;;4119162;28;20480;-80
2021/09/30 03:49:27;;;;;;;4.13;1.20;;;8.70;99.90;;;;;;4127988;28;20561;-80
2021/09/30 03:51:38;;;;;;;1.20;1.10;;;8.70;99.90;;;;;;4137751;28;20479;-77
2021/09/30 03:53:56;;;;;;;2.37;0.97;;;8.70;99.90;;;;;;4138828;28;20996;-80
2021/09/30 03:56:08;;;;;;;2.40;1.00;;;8.70;99.90;;;;;;4134179;28;20524;-80
2021/09/30 04:00:29;;;;;;;2.63;1.60;;;8.70;99.90;;;;;;4129653;28;20502;-80
2021/09/30 04:02:31;;;;;;;1.20;1.10;;;8.70;99.90;;;;;;4130939;28;20500;-80
2021/09/30 04:04:34;;;;;;;3.53;0.97;;;8.70;99.90;;;;;;4134754;28;20553;-80
2021/09/30 04:06:36;;;;;;;2.37;1.10;;;8.70;99.90;;;;;;4131137;28;20929;-78
2021/09/30 04:08:38;;;;;;;1.40;1.10;;;9.00;99.90;;;;;;4132733;28;20491;-80
2021/09/30 04:10:40;;;;;;;1.53;0.80;;;8.70;99.90;;;;;;4134573;28;20465;-80
2021/09/30 04:12:43;;;;;;;4.23;1.00;;;8.70;99.90;;;;;;4134828;28;20451;-77
2021/09/30 04:14:44;;;;;;;1.00;0.90;;;8.70;99.90;;;;;;4123726;28;20482;-77
2021/09/30 04:16:47;;;;;;;6.13;1.47;;;8.70;99.90;;;;;;4133801;28;20467;-78
2021/09/30 04:18:49;;;;;;;2.03;1.00;;;8.70;99.90;;;;;;4135041;28;20467;-80
2021/09/30 04:20:51;;;;;;;3.03;1.07;;;8.70;99.90;;;;;;4134776;28;20463;-80
2021/09/30 04:22:52;;;;;;;2.23;1.03;;;8.70;99.90;;;;;;4132214;28;20527;-80
2021/09/30 04:24:54;;;;;;;3.07;1.17;;;8.70;99.90;;;;;;4133886;28;20557;-78
2021/09/30 04:26:56;;;;;;;2.70;0.97;;;8.70;99.90;;;;;;4134366;28;20950;-80
2021/09/30 04:28:59;;;;;;;6.37;1.60;;;8.70;99.90;;;;;;4121105;28;20507;-80
2021/09/30 04:31:01;;;;;;;2.70;1.07;;;8.70;99.90;;;;;;4131184;28;20526;-80
2021/09/30 04:33:03;;;;;;;1.67;0.93;;;8.70;99.90;;;;;;4124153;28;20952;-80
2021/09/30 04:35:06;;;;;;;4.37;1.57;;;8.70;99.90;;;;;;4123490;28;21023;-80
2021/09/30 04:37:08;;;;;;;2.33;1.20;;;8.70;99.90;;;;;;4133042;28;20464;-80
2021/09/30 04:39:10;;;;;;;4.20;1.20;;;8.70;99.90;;;;;;4130501;28;20475;-80
2021/09/30 04:41:15;;;;;;;1.77;1.33;;;8.70;99.90;;;;;;4131145;28;20474;-80
2021/09/30 04:43:17;;;;;;;2.67;1.20;;;8.70;99.90;;;;;;4133571;28;20467;-80
2021/09/30 04:45:20;;;;;;;3.83;1.33;;;8.70;99.90;;;;;;4128695;28;20566;-80
2021/09/30 04:47:21;;;;;;;3.00;1.50;;;8.70;99.90;;;;;;4124114;28;20557;-77
2021/09/30 04:49:23;;;;;;;4.27;1.70;;;8.70;99.90;;;;;;4128911;28;20469;-81
2021/09/30 04:51:25;;;;;;;2.80;1.17;;;8.60;99.90;;;;;;4125962;28;20797;-81
2021/09/30 04:53:26;;;;;;;3.67;1.20;;;8.60;99.90;;;;;;4131766;28;20459;-81
2021/09/30 04:55:28;;;;;;;1.73;1.10;;;8.60;99.90;;;;;;4121301;28;20528;-80
2021/09/30 04:57:32;;;;;;;3.33;1.33;;;8.60;99.90;;;;;;4116363;28;20451;-81
2021/09/30 04:59:33;;;;;;;1.73;1.10;;;8.60;99.90;;;;;;4121408;28;20475;-78
2021/09/30 05:01:38;;;;;;;1.97;1.30;;;8.60;99.90;;;;;;4130708;28;20954;-80
2021/09/30 05:03:39;;;;;;;3.10;1.43;;;8.60;99.90;;;;;;4118199;28;20554;-81
2021/09/30 05:05:41;;;;;;;5.03;1.37;;;8.60;99.90;;;;;;4123320;28;20523;-81
2021/09/30 05:07:43;;;;;;;3.83;1.10;;;8.50;99.90;;;;;;4126312;28;20460;-78
2021/09/30 05:09:47;;;;;;;3.53;1.40;;;8.50;99.90;;;;;;4123402;28;20942;-81
2021/09/30 05:11:52;;;;;;;6.20;1.40;;;8.60;99.90;;;;;;4122699;28;20467;-81
2021/09/30 05:13:57;;;;;;;1.40;0.93;;;8.50;99.90;;;;;;4118277;28;20488;-81
2021/09/30 05:15:58;;;;;;;4.30;1.20;;;8.50;99.90;;;;;;4121010;28;20569;-81
2021/09/30 05:18:01;;;;;;;3.47;1.10;;;8.50;99.90;;;;;;4120848;28;20530;-78
2021/09/30 05:20:04;;;;;;;2.63;1.17;;;8.50;99.90;;;;;;4121666;28;20461;-80
2021/09/30 05:22:06;;;;;;;2.13;1.10;;;8.50;99.90;;;;;;4124892;28;20495;-80
2021/09/30 05:24:07;;;;;;;3.13;1.10;;;8.50;99.90;;;;;;4122295;28;20459;-81
2021/09/30 05:26:09;;;;;;;2.60;1.20;;;8.50;99.90;;;;;;4123464;28;20495;-77
2021/09/30 05:28:13;;;;;;;3.40;1.20;;;8.50;99.90;;;;;;4119510;28;20483;-80
2021/09/30 05:30:15;;;;;;;1.50;1.00;;;8.60;99.90;;;;;;4119253;28;20943;-81
2021/09/30 05:32:16;;;;;;;2.57;1.10;;;8.50;99.90;;;;;;4124715;28;20974;-80
2021/09/30 05:34:19;;;;;;;3.10;1.60;;;8.50;99.90;;;;;;4122839;28;21000;-81
2021/09/30 05:36:21;;;;;;;3.03;1.30;;;8.50;99.90;;;;;;4122577;28;20491;-79
2021/09/30 05:38:23;;;;;;;1.80;1.30;;;8.50;99.90;;;;;;4122759;28;20510;-79
2021/09/30 05:40:27;;;;;;;4.13;1.53;;;8.50;99.90;;;;;;4121223;28;20811;-78
2021/09/30 05:42:29;;;;;;;5.40;1.37;;;8.50;99.90;;;;;;4121776;28;20495;-78
2021/09/30 05:44:32;;;;;;;3.83;1.20;;;8.50;99.90;;;;;;4120586;28;20527;-80
2021/09/30 05:46:37;;;;;;;4.50;1.30;;;8.50;99.90;;;;;;4122776;28;20491;-77
2021/09/30 05:48:39;;;;;;;4.33;1.23;;;8.50;99.90;;;;;;4122950;28;20464;-81
2021/09/30 05:50:42;;;;;;;2.70;1.27;;;8.50;99.90;;;;;;4125295;28;20459;-81
2021/09/30 05:52:44;;;;;;;2.07;1.40;;;8.50;99.90;;;;;;4127718;28;20467;-81
2021/09/30 05:54:47;;;;;;;1.73;1.23;;;8.40;99.90;;;;;;4127132;28;21047;-78
2021/09/30 05:56:49;;;;;;;1.77;1.10;;;8.50;99.90;;;;;;4131703;28;20470;-81
2021/09/30 05:58:50;;;;;;;2.90;1.20;;;8.50;99.90;;;;;;4133449;28;20485;-81
2021/09/30 06:01:02;;;;;;;4.27;1.17;;;8.50;99.90;;;;;;4125957;28;20474;-81
2021/09/30 06:10:18;;;;;;;2.80;1.30;;;8.50;99.90;;;;;;4122468;28;20499;-83
2021/09/30 06:12:22;;;;;;;2.73;1.20;;;8.60;99.90;;;;;;4114838;28;20501;-79
2021/09/30 06:14:25;;;;;;;2.20;1.20;;;8.60;99.90;;;;;;4130464;28;20864;-78
2021/09/30 06:16:26;;;;;;;2.00;1.20;;;8.60;99.90;;;;;;4127946;28;20489;-79
2021/09/30 06:18:28;;;;;;;2.40;1.10;;;8.60;99.90;;;;;;4126825;28;20522;-77
2021/09/30 06:20:30;;;;;;;2.33;1.03;;;8.60;99.90;;;;;;4128659;28;20539;-77
2021/09/30 06:22:32;;;;;;;2.67;1.13;;;8.60;99.90;;;;;;4130567;28;20557;-78
2021/09/30 06:24:41;;;;;;;5.27;1.70;;;8.60;99.90;;;;;;4129035;28;20545;-80
2021/09/30 06:26:43;;;;;;;4.20;1.40;;;8.60;99.90;;;;;;4122269;28;20867;-79
2021/09/30 06:28:45;;;;;;;2.57;1.27;;;8.70;99.90;;;;;;4120344;28;20456;-79
2021/09/30 06:30:46;;;;;;;2.50;1.13;;;8.70;99.90;;;;;;4123490;28;20530;-80
2021/09/30 06:32:49;;;;;;;2.60;1.20;;;9.20;99.90;;;;;;4125699;28;20528;-80
2021/09/30 06:34:51;;;;;;;2.20;1.33;;;8.80;99.90;;;;;;4128237;28;20556;-80
2021/09/30 06:36:53;;;;;;;3.13;1.20;;;8.90;99.90;;;;;;4124837;28;20452;-80
2021/09/30 06:38:54;;;;;;;5.90;1.30;;;8.90;99.90;;;;;;4120310;28;20478;-80
2021/09/30 06:40:57;;;;;;;3.70;1.03;;;8.90;99.90;;;;;;4125490;28;20460;-80
2021/09/30 06:42:59;;;;;;;2.63;1.47;;;8.90;99.90;;;;;;4123443;28;20495;-80
2021/09/30 06:45:01;;;;;;;4.37;1.73;;;8.90;99.90;;;;;;4127018;28;20491;-77
2021/09/30 06:47:03;;;;;;;2.43;1.40;;;9.00;99.90;;;;;;4129721;28;20974;-80
2021/09/30 06:49:05;;;;;;;3.10;1.33;;;9.00;99.90;;;;;;4122288;28;20479;-80
2021/09/30 06:51:07;;;;;;;3.97;1.30;;;9.00;99.90;;;;;;4124232;28;21006;-80
2021/09/30 06:53:09;;;;;;;1.47;1.10;;;9.00;99.90;;;;;;4122968;28;20479;-80
2021/09/30 06:55:12;;;;;;;3.90;1.13;;;9.10;99.90;;;;;;4114038;28;20499;-80
2021/09/30 06:57:15;;;;;;;7.73;1.50;;;9.10;99.90;;;;;;4115384;28;20469;-79
2021/09/30 06:59:22;;;;;;;1.63;1.17;;;9.10;99.90;;;;;;4116240;28;20480;-83
2021/09/30 07:01:25;;;;;;;4.73;1.17;;;9.10;99.90;;;;;;4121444;28;20559;-82
2021/09/30 07:03:29;;;;;;;2.57;1.30;;;9.20;99.90;;;;;;4127743;28;20997;-80
2021/09/30 07:05:32;;;;;;;2.87;1.23;;;9.20;99.90;;;;;;4119009;28;21039;-80
2021/09/30 07:07:35;;;;;;;3.70;1.30;;;9.30;99.90;;;;;;4127270;28;20479;-80
2021/09/30 07:09:37;;;;;;;6.00;1.50;;;9.30;99.90;;;;;;4126324;28;20476;-79
2021/09/30 07:11:39;;;;;;;2.80;1.40;;;9.40;99.90;;;;;;4119369;28;20473;-79
2021/09/30 07:13:42;;;;;;;3.77;1.60;;;9.40;99.90;;;;;;4114469;28;20878;-80
2021/09/30 07:15:44;;;;;;;4.67;2.13;;;9.40;99.90;;;;;;4114575;28;20503;-80
2021/09/30 07:17:46;;;;;;;6.43;2.17;;;9.40;99.90;;;;;;4123863;28;20485;-79
2021/09/30 07:19:48;;;;;;;7.00;2.23;;;9.50;99.90;;;;;;4125670;28;20977;-80
2021/09/30 07:21:49;;;;;;;3.67;1.70;;;9.50;99.90;;;;;;4120447;28;20463;-80
2021/09/30 07:23:51;;;;;;;3.07;1.50;;;9.50;99.90;;;;;;4126245;28;20492;-79
2021/09/30 07:25:53;;;;;;;2.20;1.60;;;9.50;99.90;;;;;;4116780;28;20512;-79
2021/09/30 07:27:54;;;;;;;3.50;1.30;;;9.60;99.90;;;;;;4125405;28;20463;-79
2021/09/30 07:29:58;;;;;;;5.80;1.70;;;9.60;99.90;;;;;;4123925;28;20979;-80
2021/09/30 07:32:00;;;;;;;5.50;1.50;;;9.70;99.90;;;;;;4114530;28;20523;-80
2021/09/30 07:34:02;;;;;;;3.37;1.40;;;9.80;99.90;;;;;;4124679;28;20456;-80
2021/09/30 07:36:04;;;;;;;3.67;1.57;;;9.80;99.90;;;;;;4123336;28;20487;-80
2021/09/30 07:38:06;;;;;;;3.43;1.47;;;9.80;99.90;;;;;;4129428;28;20830;-80
2021/09/30 07:40:09;;;;;;;5.03;1.33;;;9.90;99.90;;;;;;4124553;28;20546;-80
2021/09/30 07:42:11;;;;;;;2.57;1.30;;;9.90;99.90;;;;;;4126244;28;20518;-79
2021/09/30 07:44:14;;;;;;;2.47;1.33;;;9.90;99.90;;;;;;4126309;28;20554;-79
2021/09/30 07:46:17;;;;;;;2.33;1.27;;;10.00;99.90;;;;;;4124271;28;20970;-80
2021/09/30 07:48:19;;;;;;;4.33;1.40;;;10.00;99.90;;;;;;4116171;28;20526;-79
2021/09/30 07:50:21;;;;;;;3.67;1.50;;;10.10;99.90;;;;;;4119751;28;20455;-80
2021/09/30 07:52:22;;;;;;;2.80;1.20;;;10.10;99.90;;;;;;4132458;28;20478;-80
2021/09/30 07:54:24;;;;;;;4.30;1.50;;;10.20;99.90;;;;;;4136396;28;20825;-77
2021/09/30 07:56:27;;;;;;;5.00;1.33;;;10.20;99.90;;;;;;4119722;28;20574;-77
2021/09/30 07:58:29;;;;;;;10.23;1.77;;;10.20;99.90;;;;;;4112519;28;20853;-76
2021/09/30 08:00:31;;;;;;;5.50;1.77;;;10.20;99.90;;;;;;4123333;28;20359;-77
2021/09/30 08:02:37;;;;;;;4.07;1.60;;;10.30;99.90;;;;;;4124685;28;20239;-77
2021/09/30 08:04:38;;;;;;;5.20;1.77;;;10.30;99.90;;;;;;4129044;28;20490;-77
2021/09/30 08:06:40;;;;;;;4.00;1.50;;;10.40;99.90;;;;;;4116783;28;20736;-77
2021/09/30 08:08:42;;;;;;;2.90;1.37;;;10.40;99.90;;;;;;4119349;28;20217;-77
2021/09/30 08:10:44;;;;;;;3.60;1.40;;;10.40;99.90;;;;;;4128051;28;20422;-76
2021/09/30 08:12:45;;;;;;;2.93;1.40;;;10.50;99.90;;;;;;4125070;28;20453;-77
2021/09/30 08:14:47;;;;;;;3.30;1.30;;;10.50;99.90;;;;;;4115780;28;20236;-76
2021/09/30 08:16:49;;;;;;;3.27;1.13;;;10.50;99.90;;;;;;4119274;28;20220;-77
2021/09/30 08:18:52;;;;;;;3.53;1.20;;;10.50;99.90;;;;;;4127441;28;20227;-77
2021/09/30 08:20:54;;;;;;;2.43;1.10;;;10.60;99.90;;;;;;4127156;28;20270;-77
2021/09/30 08:22:56;;;;;;;5.03;1.53;;;10.60;99.90;;;;;;4113461;28;20431;-77
2021/09/30 08:24:58;;;;;;;3.80;1.30;;;10.70;99.90;;;;;;4112498;28;20594;-77
2021/09/30 08:26:59;;;;;;;4.13;1.37;;;10.70;99.90;;;;;;4112396;28;20213;-79
2021/09/30 08:29:01;;;;;;;2.87;1.00;;;10.70;99.90;;;;;;4126007;28;20239;-79
2021/09/30 08:31:03;;;;;;;3.47;1.00;;;10.60;99.90;;;;;;4117134;28;20219;-80
2021/09/30 08:33:06;;;;;;;3.33;1.23;;;10.80;99.90;;;;;;4120451;28;20220;-79
2021/09/30 08:35:09;;;;;;;5.50;1.20;;;10.90;99.90;;;;;;4126932;28;20229;-79
2021/09/30 08:37:11;;;;;;;5.73;1.83;;;10.90;99.90;;;;;;4120803;28;20234;-78
2021/09/30 08:39:13;;;;;;;6.73;1.20;;;11.00;99.90;;;;;;4115886;28;20284;-79
2021/09/30 08:41:16;;;;;;;3.17;1.10;;;11.00;99.90;;;;;;4125494;28;20214;-76
2021/09/30 08:43:18;;;;;;;2.70;1.20;;;11.10;99.90;;;;;;4138281;28;20244;-82
2021/09/30 08:45:21;;;;;;;4.97;1.20;;;11.10;99.90;;;;;;4137789;28;20236;-77
2021/09/30 08:47:23;;;;;;;2.43;1.30;;;11.20;99.90;;;;;;4120059;28;20241;-81
2021/09/30 08:49:26;;;;;;;3.57;1.00;;;11.20;99.90;;;;;;4125603;28;20212;-81
2021/09/30 08:51:29;;;;;;;2.03;1.00;;;11.20;99.90;;;;;;4125685;28;20272;-82
2021/09/30 08:53:32;;;;;;;4.20;1.33;;;11.20;99.90;;;;;;4126346;28;20213;-80
2021/09/30 08:55:33;;;;;;;4.97;1.37;;;11.30;99.90;;;;;;4119936;28;20260;-80
2021/09/30 08:57:35;;;;;;;3.70;1.20;;;11.40;99.90;;;;;;4126176;28;20352;-84
2021/09/30 08:59:38;;;;;;;3.80;1.00;;;11.40;99.90;;;;;;4124583;28;20276;-79
2021/09/30 09:01:40;;;;;;;3.17;1.43;;;11.60;99.90;;;;;;4122544;28;20214;-83
2021/09/30 09:03:43;;;;;;;4.40;1.40;;;11.60;99.90;;;;;;4127154;28;20604;-82
2021/09/30 09:05:45;;;;;;;3.23;1.23;;;11.70;99.90;;;;;;4125952;28;20649;-81
2021/09/30 09:07:56;;;;;;;2.80;1.07;;;11.80;99.90;;;;;;4120091;28;20289;-84
2021/09/30 09:09:59;;;;;;;7.60;1.30;;;11.80;99.90;;;;;;4127245;28;20704;-83
2021/09/30 09:12:08;;;;;;;3.67;1.17;;;11.90;99.90;;;;;;4127176;28;20218;-81
2021/09/30 09:14:10;;;;;;;2.63;1.00;;;11.90;99.90;;;;;;4116360;28;20664;-82
2021/09/30 09:16:12;;;;;;;4.80;1.40;;;12.00;99.90;;;;;;4123718;28;20226;-82
2021/09/30 09:18:21;;;;;;;5.10;1.13;;;12.10;99.90;;;;;;4125245;28;20616;-81
2021/09/30 09:20:27;;;;;;;2.17;1.10;;;12.10;99.90;;;;;;4124314;28;20745;-82
2021/09/30 09:22:32;;;;;;;5.30;1.20;;;12.30;99.90;;;;;;4121264;28;20730;-82
2021/09/30 09:24:35;;;;;;;5.70;1.30;;;12.20;99.90;;;;;;4117128;28;20250;-79
2021/09/30 09:26:40;;;;;;;2.40;1.10;;;12.20;99.90;;;;;;4118051;28;20215;-82
2021/09/30 09:29:03;;;;;;;4.03;1.30;;;12.30;99.90;;;;;;4116069;28;20215;-86
2021/09/30 09:31:05;;;;;;;2.73;1.20;;;12.30;99.90;;;;;;4120460;28;20299;-80
2021/09/30 09:33:10;;;;;;;5.73;1.20;;;12.30;99.90;;;;;;4124132;28;20654;-82
2021/09/30 09:35:13;;;;;;;2.80;1.10;;;12.40;99.90;;;;;;4126789;28;20243;-82
2021/09/30 09:37:24;;;;;;;4.10;1.40;;;12.40;99.90;;;;;;4120464;28;20231;-79
2021/09/30 09:39:37;;;;;;;4.40;1.23;;;12.40;99.90;;;;;;4126088;28;20255;-80
2021/09/30 09:41:39;;;;;;;5.60;1.40;;;12.50;99.90;;;;;;4115751;28;20223;-80
2021/09/30 09:43:42;;;;;;;2.90;1.20;;;12.50;99.90;;;;;;4120390;28;20240;-82
2021/09/30 09:45:47;;;;;;;4.83;1.20;;;12.60;99.90;;;;;;4126873;28;20234;-79
2021/09/30 09:47:49;;;;;;;8.70;1.43;;;12.70;99.90;;;;;;4125264;28;20213;-81
2021/09/30 09:50:12;;;;;;;4.47;1.33;;;12.80;99.90;;;;;;4117428;28;20215;-80
2021/09/30 09:52:16;;;;;;;4.10;1.20;;;12.90;99.90;;;;;;4134944;28;20772;-77
2021/09/30 09:54:19;;;;;;;5.17;1.33;;;13.00;99.90;;;;;;4126085;28;20221;-76
2021/09/30 09:56:22;;;;;;;4.00;1.30;;;13.10;99.90;;;;;;4123970;28;20309;-81
2021/09/30 09:58:24;;;;;;;5.60;1.20;;;13.20;99.90;;;;;;4118836;28;20235;-78
2021/09/30 10:00:26;;;;;;;5.37;1.40;;;13.20;99.90;;;;;;4128264;28;20655;-78
2021/09/30 10:02:31;;;;;;;3.57;1.20;;;13.30;99.90;;;;;;4121978;28;20227;-78
2021/09/30 10:04:33;;;;;;;5.03;1.20;;;13.30;99.90;;;;;;4122057;28;20236;-78
2021/09/30 10:06:36;;;;;;;4.97;1.80;;;13.30;99.90;;;;;;4111195;28;20771;-75
2021/09/30 10:08:39;;;;;;;6.17;1.37;;;13.40;99.90;;;;;;4120507;28;20769;-78
2021/09/30 10:10:42;;;;;;;3.67;1.30;;;13.50;99.90;;;;;;4126503;28;20273;-79
2021/09/30 10:12:45;;;;;;;5.13;1.50;;;13.50;99.90;;;;;;4126685;28;20277;-79
2021/09/30 10:14:47;;;;;;;4.23;1.30;;;13.60;99.90;;;;;;4126355;28;20258;-78
2021/09/30 10:16:51;;;;;;;3.60;1.00;;;13.60;99.90;;;;;;4113366;28;20228;-79
2021/09/30 10:18:57;;;;;;;4.40;1.50;;;13.60;99.90;;;;;;4115288;28;20888;-78
2021/09/30 10:20:59;;;;;;;3.23;1.20;;;13.70;99.90;;;;;;4119642;28;20213;-78
2021/09/30 10:23:02;;;;;;;4.47;1.33;;;13.80;99.90;;;;;;4116946;28;20831;-76
2021/09/30 10:25:05;;;;;;;5.73;1.30;;;13.90;99.90;;;;;;4114197;28;20230;-80
2021/09/30 10:27:07;;;;;;;4.77;1.23;;;13.90;99.90;;;;;;4116557;28;20212;-77
2021/09/30 10:29:11;;;;;;;4.60;1.27;;;14.00;99.90;;;;;;4114961;28;20260;-79
2021/09/30 10:31:31;;;;;;;3.57;0.90;;;14.10;99.90;;;;;;4115060;28;20220;-78
2021/09/30 10:33:41;;;;;;;3.13;1.40;;;14.20;99.90;;;;;;4113034;28;20299;-77
2021/09/30 10:35:45;;;;;;;5.70;1.10;;;14.20;99.90;;;;;;4112372;28;20255;-78
2021/09/30 10:37:49;;;;;;;5.63;1.20;;;14.30;99.90;;;;;;4114958;28;20222;-79
2021/09/30 10:40:23;;;;;;;2.20;1.10;;;14.50;99.90;;;;;;4111821;28;20252;-79
2021/09/30 10:42:43;;;;;;;5.87;1.20;;;14.60;99.00;;;;;;4080318;28;20597;-75
2021/09/30 10:45:05;;;;;;;2.70;1.00;;;14.60;98.60;;;;;;4106581;28;20295;-76
2021/09/30 10:47:09;;;;;;;2.87;1.00;;;14.50;98.60;;;;;;4118404;28;20679;-78
2021/09/30 10:49:29;;;;;;;2.67;0.90;;;14.50;99.00;;;;;;4115716;28;20230;-76
2021/09/30 10:51:31;;;;;;;3.83;0.90;;;14.50;98.80;;;;;;4120020;28;20212;-77
2021/09/30 10:53:57;;;;;;;3.00;0.97;;;14.40;98.30;;;;;;4114298;28;20291;-79
2021/09/30 10:55:59;;;;;;;2.60;1.00;;;14.40;98.70;;;;;;4115558;28;20262;-79
2021/09/30 10:58:03;;;;;;;4.67;1.00;;;14.40;99.60;;;;;;4125905;28;20217;-76
2021/09/30 11:00:08;;;;;;;4.40;1.00;;;14.40;98.40;;;;;;4123745;28;20216;-78
2021/09/30 11:02:11;;;;;;;4.53;1.10;;;14.40;96.90;;;;;;4122824;28;20208;-77
2021/09/30 11:04:13;;;;;;;3.60;1.00;;;14.40;96.50;;;;;;4125608;28;20237;-82
2021/09/30 11:06:21;;;;;;;4.90;0.90;;;14.50;97.00;;;;;;4119496;28;20285;-76
2021/09/30 11:08:24;;;;;;;2.97;0.87;;;14.60;96.60;;;;;;4121103;28;20239;-76
2021/09/30 11:10:26;;;;;;;5.90;0.83;;;14.70;97.00;;;;;;4121188;28;20640;-75
2021/09/30 11:12:27;;;;;;;4.00;0.80;;;14.70;94.90;;;;;;4116712;28;20694;-77
2021/09/30 11:14:29;;;;;;;1.93;0.70;;;14.80;93.70;;;;;;4119329;28;20219;-78
2021/09/30 11:16:39;;;;;;;3.67;1.10;;;14.80;94.20;;;;;;4115072;28;20221;-75
2021/09/30 11:18:52;;;;;;;1.33;0.80;;;14.90;92.50;;;;;;4125030;28;20308;-76
2021/09/30 11:20:54;;;;;;;5.50;0.93;;;15.10;92.00;;;;;;4124204;28;20249;-76
2021/09/30 11:22:55;;;;;;;2.97;0.93;;;15.20;91.40;;;;;;4120240;28;20679;-77
2021/09/30 11:24:57;;;;;;;5.10;1.20;;;15.20;89.60;;;;;;4118540;28;20664;-77
2021/09/30 11:27:31;;;;;;;3.63;0.80;;;15.30;86.30;;;;;;4120089;28;20243;-77
2021/09/30 11:29:34;;;;;;;3.07;0.73;;;15.40;83.60;;;;;;4119609;28;20224;-75
2021/09/30 11:31:37;;;;;;;2.60;0.90;;;15.40;81.00;;;;;;4119124;28;20231;-79
2021/09/30 11:33:43;;;;;;;3.53;0.90;;;15.40;76.90;;;;;;4120841;28;20284;-79
2021/09/30 11:35:48;;;;;;;3.33;0.97;;;15.40;75.60;;;;;;4125191;28;20856;-78
2021/09/30 11:37:50;;;;;;;2.00;0.80;;;15.30;80.60;;;;;;4127328;28;20214;-79
2021/09/30 11:39:52;;;;;;;3.13;0.90;;;15.40;83.00;;;;;;4126174;28;20753;-76
2021/09/30 11:41:55;;;;;;;1.87;0.70;;;15.90;76.20;;;;;;4118494;28;20581;-77
2021/09/30 11:43:57;;;;;;;3.87;0.93;;;16.70;77.10;;;;;;4117904;28;20631;-78
2021/09/30 11:45:59;;;;;;;3.00;1.03;;;17.70;69.00;;;;;;4121745;28;20713;-75
2021/09/30 11:48:05;;;;;;;4.83;0.90;;;18.70;59.80;;;;;;4122855;28;20212;-79
2021/09/30 11:50:09;;;;;;;3.00;0.77;;;19.60;51.70;;;;;;4124647;28;20221;-78
2021/09/30 11:52:13;;;;;;;3.70;0.97;;;19.70;47.10;;;;;;4124440;28;20216;-78
2021/09/30 11:54:16;;;;;;;4.50;0.80;;;19.90;48.70;;;;;;4123616;28;20232;-80
2021/09/30 11:56:18;;;;;;;3.87;0.80;;;20.20;45.20;;;;;;4111586;28;20217;-80
2021/09/30 11:58:20;;;;;;;3.90;0.90;;;20.40;43.90;;;;;;4120768;28;20570;-79
2021/09/30 12:00:23;;;;;;;2.93;0.80;;;20.80;42.50;;;;;;4126372;28;20212;-80
2021/09/30 12:02:27;;;;;;;4.60;1.33;;;21.40;43.00;;;;;;4127495;28;20315;-79
2021/09/30 12:04:32;;;;;;;3.80;1.17;;;21.80;40.50;;;;;;4119183;28;20238;-77
2021/09/30 12:06:39;;;;;;;3.13;0.90;;;21.90;40.60;;;;;;4126766;28;20227;-77
2021/09/30 12:08:40;;;;;;;2.58;0.75;;;22.40;40.90;;;;;;4128702;28;20226;-78
2021/09/30 12:10:42;;;;;;;4.20;0.93;;;22.50;39.10;;;;;;4128067;28;20271;-78
2021/09/30 12:12:45;;;;;;;3.00;0.77;;;22.60;38.10;;;;;;4125079;28;20672;-77
2021/09/30 12:14:49;;;;;;;3.10;0.80;;;22.40;38.70;;;;;;4112801;28;20233;-78
2021/09/30 12:16:55;;;;;;;2.35;0.77;;;22.40;37.50;;;;;;4127163;28;20664;-78
2021/09/30 12:19:00;;;;;;;2.25;0.73;;;22.70;38.50;;;;;;4118539;28;20213;-79
2021/09/30 12:21:03;;;;;;;5.72;1.23;;;22.80;35.20;;;;;;4124382;28;20221;-78
2021/09/30 12:23:05;;;;;;;4.15;1.02;;;22.90;36.30;;;;;;4120203;28;20264;-78
2021/09/30 12:25:13;;;;;;;5.25;0.88;;;22.90;35.90;;;;;;4114192;28;20652;-78
2021/09/30 12:27:15;;;;;;;2.05;0.90;;;22.80;36.50;;;;;;4119378;28;20239;-77
2021/09/30 12:29:18;;;;;;;2.50;0.80;;;22.80;36.10;;;;;;4123072;28;20216;-78
2021/09/30 12:31:20;;;;;;;1.98;0.80;;;22.90;36.70;;;;;;4119111;28;20312;-76
2021/09/30 12:33:31;;;;;;;2.90;0.70;;;23.10;36.60;;;;;;4123456;28;20278;-77
2021/09/30 12:35:37;;;;;;;3.42;0.80;;;23.50;36.60;;;;;;4113827;28;20348;-78
2021/09/30 12:37:46;;;;;;;2.33;0.80;;;23.50;35.40;;;;;;4112797;28;20256;-78
2021/09/30 12:39:59;;;;;;;3.47;0.82;;;23.50;36.20;;;;;;4117455;28;20212;-75
2021/09/30 12:42:13;;;;;;;2.60;0.82;;;23.80;36.10;;;;;;4122967;28;20232;-76
2021/09/30 12:44:14;;;;;;;1.75;0.63;;;23.60;34.60;;;;;;4120383;28;20379;-80
2021/09/30 12:46:18;;;;;;;1.95;1.00;;;23.30;35.50;;;;;;4119898;28;20275;-80
2021/09/30 12:48:23;;;;;;;3.20;0.77;;;22.90;35.00;;;;;;4125768;28;20501;-78
2021/09/30 12:50:35;;;;;;;5.18;0.90;;;22.90;36.50;;;;;;4121442;28;20267;-78
2021/09/30 12:52:38;;;;;;;3.40;0.98;;;22.80;36.40;;;;;;4123514;28;20236;-75
2021/09/30 12:54:44;;;;;;;3.17;0.70;;;22.70;35.90;;;;;;4128730;28;20229;-81
2021/09/30 12:56:45;;;;;;;2.95;0.70;;;22.80;36.00;;;;;;4128707;28;20311;-77
2021/09/30 12:58:49;;;;;;;2.33;0.68;;;22.90;35.80;;;;;;4118837;28;20217;-80
2021/09/30 13:00:51;;;;;;;1.33;0.70;;;22.80;36.00;;;;;;4120194;28;20208;-82
2021/09/30 13:02:58;;;;;;;4.10;0.90;;;23.00;36.30;;;;;;4125216;28;20252;-80
2021/09/30 13:05:00;;;;;;;2.85;0.90;;;23.10;37.30;;;;;;4129150;28;20246;-78
2021/09/30 13:07:03;;;;;;;2.03;0.90;;;23.20;37.50;;;;;;4128320;28;20255;-79
2021/09/30 13:09:06;;;;;;;5.30;1.00;;;23.30;36.60;;;;;;4130845;28;20255;-77
2021/09/30 13:11:31;;;;;;;2.38;0.93;;;23.10;36.70;;;;;;4128461;28;20220;-78
2021/09/30 13:13:32;;;;;;;2.75;0.85;;;23.10;36.80;;;;;;4122918;28;20267;-78
2021/09/30 13:15:39;;;;;;;2.47;0.80;;;23.10;37.00;;;;;;4124573;28;20228;-78
2021/09/30 13:17:41;;;;;;;3.30;1.00;;;23.10;37.60;;;;;;4123113;28;20251;-75